Kusadasi, Turkey
Current Conditions -  °F | °C
As of 4:50 PM on Friday 24 Oct 2014 (Local Time) from LGSM Reporting Station
Light Rain Light Rain  
Wind Chill: 70°   Ceiling: 8000
Heat Index: 70°   Visibility: 6mi
Dew Point: 61°   Wind: 9mph
Humidity: 73%   Direction: 190°S
Pressure: 29.8"   Gusts: NA
Location:  37.87°N, 27.26°E
Report Text: LGSM 241350Z 19008KT 9999 -RA FEW018 SCT025 OVC080 21/16 Q1009
Loading
Personal Weather Stations






























Interactive Weather Map
Tropical Storm Tracking
New forecast layout! Learn more

10-Day Weather Forecast

Advertisements
Track Severe Weather on mobile